Terminal Aerodrome Forecast
Issued by NWS

Home | Current Version | Previous Version | Text Only | Print | Product List | Glossary On
Versions: 1 2 3 4 5 6 7 8 9 10 11 12 13 14 15 16 17
000
FTUS44 KLZK 180500 RRA
TAFADF
TAF
KADF 180540Z 1806/1906 00000KT P6SM SCT120 BKN250
     FM181000 00000KT 4SM BR SCT015 BKN120
      TEMPO 1810/1814 2SM BR OVC015
     FM181400 11004KT P6SM BKN025 OVC050
     FM181800 12005KT P6SM VCTS BKN050CB
     FM190000 VRB03KT P6SM BKN250=

USA.gov is the U.S. government's official web portal to all federal, state and local government web resources and services.